Time;durP1;ratioP1;P1;durP2;ratioP2;P2;SDS_P1;SDS_P2;PMS_P1;PMS_P2;Temp;Humidity;BMP_temperature;BMP_pressure;BME280_temperature;BME280_humidity;BME280_pressure;Samples;Min_cycle;Max_cycle;Signal;HPM_P1;HPM_P2
2020/12/10 00:01:56;;;;;;;138.00;46.03;;;1.70;99.90;;;;;;4982513;28;20117;-71
2020/12/10 00:04:21;;;;;;;136.95;46.40;;;1.70;99.90;;;;;;4982945;28;20088;-71
2020/12/10 00:06:47;;;;;;;130.38;47.28;;;1.70;99.90;;;;;;4983875;28;20315;-71
2020/12/10 00:09:13;;;;;;;135.93;44.83;;;1.60;99.90;;;;;;4983030;28;20034;-71
2020/12/10 00:11:38;;;;;;;128.27;46.95;;;1.60;99.90;;;;;;4983158;28;20125;-71
2020/12/10 00:14:05;;;;;;;128.02;45.67;;;1.50;99.90;;;;;;4983412;28;20689;-71
2020/12/10 00:16:31;;;;;;;136.57;47.00;;;1.50;99.90;;;;;;4982193;28;20069;-71
2020/12/10 00:18:57;;;;;;;136.45;47.30;;;1.50;99.90;;;;;;4978456;28;20038;-71
2020/12/10 00:21:23;;;;;;;129.70;45.53;;;1.60;99.90;;;;;;4983370;28;20034;-71
2020/12/10 00:23:49;;;;;;;123.95;44.17;;;1.50;99.90;;;;;;4983183;28;20109;-72
2020/12/10 00:26:16;;;;;;;138.38;47.60;;;1.60;99.90;;;;;;4982142;28;20027;-71
2020/12/10 00:28:42;;;;;;;144.02;47.40;;;1.50;99.90;;;;;;4983396;28;20030;-71
2020/12/10 00:31:11;;;;;;;145.45;48.63;;;1.50;99.90;;;;;;4983157;28;20035;-71
2020/12/10 00:33:37;;;;;;;150.90;50.65;;;1.50;99.90;;;;;;4965085;28;20117;-71
2020/12/10 00:36:03;;;;;;;146.82;48.47;;;1.50;99.90;;;;;;4983027;28;20127;-71
2020/12/10 00:38:29;;;;;;;150.02;49.03;;;1.40;99.90;;;;;;4983416;28;20030;-71
2020/12/10 00:40:55;;;;;;;137.70;48.05;;;1.40;99.90;;;;;;4983130;28;20065;-71
2020/12/10 00:43:25;;;;;;;136.02;47.90;;;1.50;99.90;;;;;;4975294;28;20034;-71
2020/12/10 00:45:51;;;;;;;136.73;44.60;;;1.50;99.90;;;;;;4982944;28;20038;-71
2020/12/10 00:48:16;;;;;;;141.02;46.17;;;1.60;99.90;;;;;;4982829;28;20073;-71
2020/12/10 00:50:42;;;;;;;139.85;47.33;;;1.50;99.90;;;;;;4980300;28;20034;-71
2020/12/10 00:53:08;;;;;;;127.80;45.67;;;1.50;99.90;;;;;;4982832;28;20026;-71
2020/12/10 00:55:35;;;;;;;133.30;47.38;;;1.50;99.90;;;;;;4980963;28;20038;-71
2020/12/10 00:58:01;;;;;;;146.05;46.92;;;1.50;99.90;;;;;;4980321;28;20168;-71
2020/12/10 01:00:26;;;;;;;143.10;46.75;;;1.50;99.90;;;;;;4982278;28;20712;-71
2020/12/10 01:02:52;;;;;;;137.50;47.28;;;1.50;99.90;;;;;;4982289;28;20912;-71
2020/12/10 01:05:18;;;;;;;148.95;47.03;;;1.50;99.90;;;;;;4964640;28;20034;-71
2020/12/10 01:07:43;;;;;;;135.68;45.92;;;1.40;99.90;;;;;;4982516;28;20141;-71
2020/12/10 01:10:09;;;;;;;135.85;45.92;;;1.30;99.90;;;;;;4982238;28;20759;-71
2020/12/10 01:12:35;;;;;;;133.10;45.47;;;1.30;99.90;;;;;;4980919;28;20041;-71
2020/12/10 01:15:00;;;;;;;137.13;46.17;;;1.30;99.90;;;;;;4981801;28;20060;-71
2020/12/10 01:17:26;;;;;;;127.30;45.85;;;1.40;99.90;;;;;;4980908;28;20074;-71
2020/12/10 01:19:52;;;;;;;132.57;43.80;;;1.30;99.90;;;;;;4980076;28;20030;-71
2020/12/10 01:22:18;;;;;;;132.25;46.05;;;1.20;99.90;;;;;;4980644;28;20490;-71
2020/12/10 01:24:43;;;;;;;129.00;43.90;;;1.20;99.90;;;;;;4980732;28;20161;-71
2020/12/10 01:27:09;;;;;;;131.90;43.85;;;1.20;99.90;;;;;;4975701;28;20027;-71
2020/12/10 01:29:34;;;;;;;125.38;41.35;;;1.20;99.90;;;;;;4980673;28;20081;-71
2020/12/10 01:32:00;;;;;;;125.10;43.13;;;1.20;99.90;;;;;;4981739;28;20399;-71
2020/12/10 01:34:26;;;;;;;122.57;42.53;;;1.30;99.90;;;;;;4964361;28;20410;-72
2020/12/10 01:36:52;;;;;;;122.90;40.92;;;1.20;99.90;;;;;;4979948;28;20116;-71
2020/12/10 01:39:17;;;;;;;119.72;41.65;;;1.30;99.90;;;;;;4981003;28;20096;-71
2020/12/10 01:41:43;;;;;;;139.23;42.08;;;1.30;99.90;;;;;;4981522;28;20529;-71
2020/12/10 01:44:13;;;;;;;130.95;42.80;;;1.20;99.90;;;;;;4981325;28;20505;-71
2020/12/10 01:46:40;;;;;;;138.90;43.25;;;1.10;99.90;;;;;;4979935;28;20048;-72
2020/12/10 01:49:06;;;;;;;129.40;44.30;;;1.10;99.90;;;;;;4980989;28;20113;-72
2020/12/10 01:51:33;;;;;;;122.13;41.55;;;1.10;99.90;;;;;;4980727;28;20065;-71
2020/12/10 01:53:59;;;;;;;134.82;45.22;;;1.00;99.90;;;;;;4981568;28;20085;-71
2020/12/10 01:56:25;;;;;;;144.50;46.55;;;1.00;99.90;;;;;;4981129;28;20073;-71
2020/12/10 01:58:52;;;;;;;135.98;45.03;;;1.00;99.90;;;;;;4980458;28;20066;-71
2020/12/10 02:01:17;;;;;;;139.23;44.90;;;1.00;99.90;;;;;;4980423;28;20162;-71
2020/12/10 02:03:43;;;;;;;131.48;43.50;;;1.10;99.90;;;;;;4980904;28;20146;-71
2020/12/10 02:06:09;;;;;;;133.90;45.08;;;1.00;99.90;;;;;;4982279;28;20483;-71
2020/12/10 02:08:39;;;;;;;146.50;45.65;;;1.00;99.90;;;;;;4980556;28;20031;-71
2020/12/10 02:11:07;;;;;;;136.10;44.25;;;1.00;99.90;;;;;;4981823;28;20567;-71
2020/12/10 02:13:33;;;;;;;146.43;47.80;;;1.10;99.90;;;;;;4982293;28;20109;-71
2020/12/10 02:15:59;;;;;;;145.10;46.35;;;1.00;99.90;;;;;;4982498;28;20447;-71
2020/12/10 02:18:27;;;;;;;140.02;45.33;;;1.10;99.90;;;;;;4981767;28;20558;-71
2020/12/10 02:20:52;;;;;;;141.60;45.38;;;1.10;99.90;;;;;;4981590;28;20069;-71
2020/12/10 02:23:18;;;;;;;152.82;48.80;;;1.10;99.90;;;;;;4981824;28;20141;-71
2020/12/10 02:25:44;;;;;;;140.57;46.30;;;1.00;99.90;;;;;;4981034;28;20554;-71
2020/12/10 02:28:13;;;;;;;145.43;45.95;;;1.10;99.90;;;;;;4980970;28;20034;-71
2020/12/10 02:30:41;;;;;;;148.73;46.80;;;1.00;99.90;;;;;;4980864;28;20059;-71
2020/12/10 02:33:09;;;;;;;154.75;50.67;;;1.10;99.90;;;;;;4981937;28;20056;-71
2020/12/10 02:35:35;;;;;;;136.10;45.22;;;1.00;99.90;;;;;;4983504;28;20046;-71
2020/12/10 02:38:04;;;;;;;154.80;49.35;;;1.00;99.90;;;;;;4984598;28;20510;-71
2020/12/10 02:40:58;;;;;;;144.10;47.50;;;1.00;99.90;;;;;;4983012;28;20117;-71
2020/12/10 02:43:23;;;;;;;145.00;45.55;;;1.00;99.90;;;;;;4981535;28;20463;-71
2020/12/10 02:45:49;;;;;;;153.63;46.25;;;0.90;99.90;;;;;;4985503;28;20037;-71
2020/12/10 02:48:15;;;;;;;149.23;47.80;;;0.90;99.90;;;;;;4984738;28;20034;-71
2020/12/10 02:50:40;;;;;;;145.35;46.88;;;0.90;99.90;;;;;;4985619;28;20030;-71
2020/12/10 02:53:06;;;;;;;143.85;48.38;;;0.90;99.90;;;;;;4985882;28;20026;-72
2020/12/10 02:55:32;;;;;;;139.55;45.30;;;0.90;99.90;;;;;;4983762;28;20027;-71
2020/12/10 02:57:58;;;;;;;157.60;50.15;;;0.90;99.90;;;;;;4985615;28;20038;-71
2020/12/10 03:00:24;;;;;;;146.85;47.38;;;0.90;99.90;;;;;;4985109;28;20035;-72
2020/12/10 03:02:49;;;;;;;142.15;46.33;;;0.90;99.90;;;;;;4983957;28;20030;-72
2020/12/10 03:05:15;;;;;;;145.05;46.60;;;0.80;99.90;;;;;;4985491;28;20038;-72
2020/12/10 03:07:41;;;;;;;143.80;44.85;;;0.80;99.90;;;;;;4967468;28;20046;-72
2020/12/10 03:10:06;;;;;;;144.75;45.25;;;0.90;99.90;;;;;;4982986;28;20030;-71
2020/12/10 03:12:32;;;;;;;150.25;46.25;;;0.90;99.90;;;;;;4985251;28;20058;-72
2020/12/10 03:14:58;;;;;;;151.93;46.13;;;0.90;99.90;;;;;;4984897;28;20095;-71
2020/12/10 03:17:24;;;;;;;144.60;45.25;;;0.90;99.90;;;;;;4984794;28;20749;-71
2020/12/10 03:19:50;;;;;;;150.65;45.15;;;0.80;99.90;;;;;;4983118;28;20042;-71
2020/12/10 03:22:15;;;;;;;143.35;46.03;;;0.80;99.90;;;;;;4985035;28;20041;-72
2020/12/10 03:24:42;;;;;;;152.32;44.30;;;0.80;99.90;;;;;;4984144;28;20402;-71
2020/12/10 03:27:08;;;;;;;154.90;44.97;;;0.80;99.90;;;;;;4981508;28;20066;-71
2020/12/10 03:29:34;;;;;;;152.75;46.63;;;0.80;99.90;;;;;;4983080;28;20118;-71
2020/12/10 03:32:00;;;;;;;143.18;43.83;;;0.80;99.90;;;;;;4984215;28;20485;-71
2020/12/10 03:34:27;;;;;;;155.43;45.72;;;0.80;99.90;;;;;;4983193;28;20049;-71
2020/12/10 03:36:56;;;;;;;154.55;46.38;;;0.70;99.90;;;;;;4984145;28;20125;-71
2020/12/10 03:39:24;;;;;;;149.27;45.97;;;0.70;99.90;;;;;;4984036;28;20097;-71
2020/12/10 03:41:50;;;;;;;146.30;45.30;;;0.70;99.90;;;;;;4984784;28;20031;-71
2020/12/10 03:44:17;;;;;;;140.52;43.85;;;0.70;99.90;;;;;;4983682;28;20125;-71
2020/12/10 03:46:46;;;;;;;157.38;45.15;;;0.70;99.90;;;;;;4982505;28;20030;-71
2020/12/10 03:49:13;;;;;;;159.32;47.80;;;0.60;99.90;;;;;;4983800;28;20022;-73
2020/12/10 03:51:39;;;;;;;159.40;46.80;;;0.60;99.90;;;;;;4984502;28;20445;-72
2020/12/10 03:54:05;;;;;;;157.60;45.90;;;0.70;99.90;;;;;;4983691;28;20039;-71
2020/12/10 03:56:31;;;;;;;155.63;48.60;;;0.70;99.90;;;;;;4983034;28;20046;-71
2020/12/10 03:58:58;;;;;;;148.65;45.17;;;0.60;99.90;;;;;;4983861;28;20097;-71
2020/12/10 04:01:23;;;;;;;153.18;43.67;;;0.60;99.90;;;;;;4983863;28;20048;-71
2020/12/10 04:03:49;;;;;;;137.70;43.08;;;0.60;99.90;;;;;;4984189;28;20046;-71
2020/12/10 04:06:15;;;;;;;156.00;46.75;;;0.50;99.90;;;;;;4981831;28;20069;-72
2020/12/10 04:08:41;;;;;;;147.65;45.63;;;0.60;99.90;;;;;;4983988;28;20041;-71
2020/12/10 04:11:06;;;;;;;159.35;45.38;;;0.70;99.90;;;;;;4980295;28;20093;-71
2020/12/10 04:13:32;;;;;;;152.25;44.63;;;0.70;99.90;;;;;;4982228;28;20573;-71
2020/12/10 04:16:01;;;;;;;146.15;44.38;;;0.70;99.90;;;;;;4981857;28;20616;-71
2020/12/10 04:18:28;;;;;;;149.27;44.20;;;0.60;99.90;;;;;;4983706;28;20034;-71
2020/12/10 04:20:53;;;;;;;142.68;43.47;;;0.60;99.90;;;;;;4966145;28;20041;-71
2020/12/10 04:23:19;;;;;;;135.77;43.05;;;0.60;99.90;;;;;;4983197;28;20760;-71
2020/12/10 04:25:51;;;;;;;137.40;41.25;;;0.60;99.90;;;;;;4983712;28;20487;-70
2020/12/10 04:28:16;;;;;;;135.38;41.30;;;0.70;99.90;;;;;;4984125;28;20960;-70
2020/12/10 04:30:42;;;;;;;138.13;41.58;;;0.60;99.90;;;;;;4982997;28;20054;-71
2020/12/10 04:33:08;;;;;;;139.02;41.90;;;0.60;99.90;;;;;;4984337;28;20756;-69
2020/12/10 04:35:33;;;;;;;129.60;40.05;;;0.50;99.90;;;;;;4982509;28;20042;-70
2020/12/10 04:37:59;;;;;;;136.27;43.45;;;0.60;99.90;;;;;;4983600;28;20026;-70
2020/12/10 04:40:25;;;;;;;142.43;40.72;;;0.60;99.90;;;;;;4983671;28;20026;-69
2020/12/10 04:42:52;;;;;;;146.55;44.53;;;0.60;99.90;;;;;;4984173;28;20455;-69
2020/12/10 04:45:17;;;;;;;139.35;41.97;;;0.70;99.90;;;;;;4983752;28;20703;-69
2020/12/10 04:47:44;;;;;;;162.50;46.85;;;0.70;99.90;;;;;;4984046;28;20026;-69
2020/12/10 04:50:22;;;;;;;153.23;44.42;;;0.60;99.90;;;;;;4983922;28;20022;-69
2020/12/10 04:52:49;;;;;;;155.80;45.63;;;0.50;99.90;;;;;;4983017;28;20065;-68
2020/12/10 04:55:14;;;;;;;166.55;48.17;;;0.60;99.90;;;;;;4982863;28;20037;-69
2020/12/10 04:57:42;;;;;;;146.50;44.85;;;0.50;99.90;;;;;;4983067;28;20349;-68
2020/12/10 05:00:08;;;;;;;153.02;44.90;;;0.50;99.90;;;;;;4982314;28;20044;-69
2020/12/10 05:06:21;;;;;;;169.00;46.80;;;0.50;99.90;;;;;;4982845;28;20041;-69
2020/12/10 05:08:47;;;;;;;162.98;49.33;;;0.60;99.90;;;;;;4982814;28;20260;-69
2020/12/10 05:11:13;;;;;;;161.45;44.72;;;0.60;99.90;;;;;;4982304;28;20069;-71
2020/12/10 05:13:38;;;;;;;148.40;45.90;;;0.60;99.90;;;;;;4981910;28;20034;-70
2020/12/10 05:16:19;;;;;;;162.15;48.00;;;0.60;99.90;;;;;;4982244;28;20100;-70
2020/12/10 05:18:45;;;;;;;161.20;45.35;;;0.60;99.90;;;;;;4982587;28;20056;-70
2020/12/10 05:21:13;;;;;;;163.75;50.80;;;0.60;99.90;;;;;;4979567;28;20498;-70
2020/12/10 05:23:40;;;;;;;173.80;49.15;;;0.60;99.90;;;;;;4979933;28;20038;-69
2020/12/10 05:26:08;;;;;;;174.07;49.40;;;0.60;99.90;;;;;;4980318;28;20030;-72
2020/12/10 05:28:43;;;;;;;158.90;46.22;;;0.70;99.90;;;;;;4980270;28;20030;-70
2020/12/10 05:31:13;;;;;;;163.20;46.40;;;0.50;99.90;;;;;;4964401;28;20038;-69
2020/12/10 05:33:59;;;;;;;160.52;48.58;;;0.60;99.90;;;;;;4964869;28;20532;-69
2020/12/10 05:36:30;;;;;;;157.40;47.78;;;0.60;99.90;;;;;;4980448;28;20054;-70
2020/12/10 05:39:04;;;;;;;173.30;48.28;;;0.70;99.90;;;;;;4982585;28;20038;-70
2020/12/10 05:41:36;;;;;;;131.40;36.45;;;0.60;99.90;;;;;;4980982;28;20038;-70
2020/12/10 05:44:22;;;;;;;186.15;50.67;;;0.60;99.90;;;;;;4974514;28;20038;-69
2020/12/10 05:46:53;;;;;;;178.07;49.30;;;0.50;99.90;;;;;;4980872;28;20096;-69
2020/12/10 05:49:19;;;;;;;174.63;49.80;;;0.50;99.90;;;;;;4981717;28;20038;-69
2020/12/10 05:51:47;;;;;;;184.73;51.08;;;0.50;99.90;;;;;;4980933;28;20034;-69
2020/12/10 05:54:15;;;;;;;181.15;49.85;;;0.50;99.90;;;;;;4982037;28;20097;-69
2020/12/10 05:57:05;;;;;;;173.45;46.83;;;0.50;99.90;;;;;;4982134;28;20030;-69
2020/12/10 05:59:32;;;;;;;174.93;47.22;;;0.50;99.90;;;;;;4979712;28;20045;-70
2020/12/10 06:02:01;;;;;;;175.80;48.45;;;0.60;99.90;;;;;;4981864;28;20038;-70
2020/12/10 06:04:27;;;;;;;160.32;47.03;;;0.60;99.90;;;;;;4981312;28;20053;-69
2020/12/10 06:06:56;;;;;;;159.63;47.92;;;0.70;99.90;;;;;;4980933;28;20030;-70
2020/12/10 06:09:24;;;;;;;171.35;47.78;;;0.70;99.90;;;;;;4973317;28;20026;-72
2020/12/10 06:12:03;;;;;;;175.15;49.22;;;0.70;99.90;;;;;;4981946;28;20096;-70
2020/12/10 06:14:29;;;;;;;161.02;46.67;;;0.70;99.90;;;;;;4981045;28;20069;-70
2020/12/10 06:17:10;;;;;;;170.43;46.47;;;0.60;99.90;;;;;;4973274;28;20038;-69
2020/12/10 06:19:37;;;;;;;177.65;47.95;;;0.60;99.90;;;;;;4975227;28;20031;-69
2020/12/10 06:22:21;;;;;;;173.60;47.10;;;0.60;99.90;;;;;;4971833;28;20034;-69
2020/12/10 06:24:47;;;;;;;157.63;44.17;;;0.60;99.90;;;;;;4976972;28;20038;-69
2020/12/10 06:27:27;;;;;;;162.98;48.65;;;0.60;99.90;;;;;;4981753;28;20030;-69
2020/12/10 06:30:15;;;;;;;145.85;42.85;;;0.60;99.90;;;;;;4982816;28;20030;-70
2020/12/10 06:32:51;;;;;;;157.20;43.65;;;0.50;99.90;;;;;;4983568;28;20188;-69
2020/12/10 06:35:30;;;;;;;171.82;46.55;;;0.50;99.90;;;;;;4981997;28;20046;-69
2020/12/10 06:37:56;;;;;;;156.27;43.72;;;0.60;99.90;;;;;;4982746;28;20246;-69
2020/12/10 06:40:33;;;;;;;154.82;44.10;;;0.60;99.90;;;;;;4982067;28;20556;-70
2020/12/10 06:43:00;;;;;;;166.45;45.03;;;0.60;99.90;;;;;;4980623;28;20038;-69
2020/12/10 06:45:34;;;;;;;155.05;43.63;;;0.50;99.90;;;;;;4977550;28;20054;-69
2020/12/10 06:48:01;;;;;;;147.43;43.78;;;0.50;99.90;;;;;;4975392;28;20065;-71
2020/12/10 06:50:30;;;;;;;169.30;45.53;;;0.40;99.90;;;;;;4981733;28;20041;-70
2020/12/10 06:53:16;;;;;;;164.35;44.42;;;0.40;99.90;;;;;;4979785;28;20069;-70
2020/12/10 06:56:04;;;;;;;161.40;45.05;;;0.50;99.90;;;;;;4975560;28;20499;-70
2020/12/10 06:58:36;;;;;;;160.05;43.90;;;0.50;99.90;;;;;;4973948;28;20111;-71
2020/12/10 07:01:21;;;;;;;145.75;43.13;;;0.40;99.90;;;;;;4981199;28;20030;-70
2020/12/10 07:03:47;;;;;;;159.38;44.13;;;0.40;99.90;;;;;;4973969;28;20114;-70
2020/12/10 07:06:20;;;;;;;159.82;47.35;;;0.50;99.90;;;;;;4972084;28;20506;-72
2020/12/10 07:09:24;;;;;;;157.73;46.63;;;0.60;99.90;;;;;;4973387;28;20026;-69
2020/12/10 07:11:50;;;;;;;172.25;45.95;;;0.70;99.90;;;;;;4930243;28;20043;-70
2020/12/10 07:14:28;;;;;;;160.45;44.90;;;0.70;99.90;;;;;;4937113;29;20496;-67
2020/12/10 07:16:55;;;;;;;166.02;45.00;;;0.70;99.90;;;;;;4938873;28;20068;-70
2020/12/10 07:19:22;;;;;;;161.57;44.72;;;0.60;99.90;;;;;;4980839;28;20049;-71
2020/12/10 07:21:48;;;;;;;165.13;47.92;;;0.70;99.90;;;;;;4982152;28;20053;-70
2020/12/10 07:24:13;;;;;;;163.27;45.55;;;0.50;99.90;;;;;;4981384;28;20035;-71
2020/12/10 07:26:40;;;;;;;178.13;48.33;;;0.40;99.90;;;;;;4976679;28;20639;-72
2020/12/10 07:29:06;;;;;;;174.45;47.92;;;0.50;99.90;;;;;;4982638;28;20022;-74
2020/12/10 07:31:32;;;;;;;180.40;46.05;;;0.50;99.90;;;;;;4981135;28;20550;-71
2020/12/10 07:33:58;;;;;;;171.00;45.45;;;0.60;99.90;;;;;;4981550;28;20037;-70
2020/12/10 07:36:26;;;;;;;160.40;42.83;;;0.60;99.90;;;;;;4985845;28;20057;-70
2020/12/10 07:38:52;;;;;;;156.18;44.65;;;0.60;99.90;;;;;;4984801;28;20042;-70
2020/12/10 07:41:18;;;;;;;156.40;45.45;;;0.50;99.90;;;;;;4985064;28;20064;-70
2020/12/10 07:43:46;;;;;;;168.70;46.88;;;0.50;99.90;;;;;;4976622;28;20046;-70
2020/12/10 07:46:12;;;;;;;152.20;43.33;;;0.60;99.90;;;;;;4983880;28;20034;-70
2020/12/10 07:48:39;;;;;;;167.38;46.20;;;0.50;99.90;;;;;;4985103;28;20073;-70
2020/12/10 07:51:05;;;;;;;169.68;46.03;;;0.60;99.90;;;;;;4984952;28;20175;-70
2020/12/10 07:53:30;;;;;;;158.80;43.42;;;0.50;99.90;;;;;;4984796;28;20041;-70
2020/12/10 07:56:03;;;;;;;164.93;43.97;;;0.50;99.90;;;;;;4975613;28;20043;-70
2020/12/10 07:59:02;;;;;;;167.52;46.13;;;0.50;99.90;;;;;;4983382;28;20058;-70
2020/12/10 08:01:35;;;;;;;166.73;43.65;;;0.40;99.90;;;;;;4984479;28;20491;-70
2020/12/10 08:04:18;;;;;;;164.85;44.72;;;0.40;99.90;;;;;;4984390;28;20487;-70
2020/12/10 08:06:46;;;;;;;159.57;43.25;;;0.40;99.90;;;;;;4984280;28;20648;-70
2020/12/10 08:09:12;;;;;;;167.40;47.13;;;0.50;99.90;;;;;;4984388;28;20886;-71
2020/12/10 08:11:54;;;;;;;240.95;72.70;;;0.60;99.90;;;;;;4979432;28;20037;-72
2020/12/10 08:14:28;;;;;;;159.00;44.22;;;0.50;99.90;;;;;;4984192;28;20067;-70
2020/12/10 08:16:54;;;;;;;157.65;44.67;;;0.50;99.90;;;;;;4982985;28;20038;-70
2020/12/10 08:19:30;;;;;;;154.88;43.38;;;0.60;99.90;;;;;;4982852;28;20034;-70
2020/12/10 08:21:57;;;;;;;149.68;43.42;;;0.60;99.90;;;;;;4982920;28;20125;-70
2020/12/10 08:24:43;;;;;;;153.40;44.45;;;0.70;99.90;;;;;;4983431;28;20058;-70
2020/12/10 08:27:11;;;;;;;155.30;44.35;;;0.70;99.90;;;;;;4983838;28;20030;-71
2020/12/10 08:29:37;;;;;;;151.82;44.75;;;0.60;99.90;;;;;;4983273;28;20038;-71
2020/12/10 08:32:12;;;;;;;145.30;41.53;;;0.60;99.90;;;;;;4981524;28;20033;-70
2020/12/10 08:34:40;;;;;;;162.10;44.63;;;0.70;99.90;;;;;;4972058;28;20097;-71
2020/12/10 08:37:10;;;;;;;146.57;44.88;;;0.70;99.90;;;;;;4981569;28;20300;-69
2020/12/10 08:39:39;;;;;;;159.73;44.28;;;0.70;99.90;;;;;;4983117;28;20089;-71
2020/12/10 08:42:05;;;;;;;161.52;44.47;;;0.70;99.90;;;;;;4981729;28;20051;-71
2020/12/10 08:44:48;;;;;;;142.32;42.75;;;0.60;99.90;;;;;;4978712;28;20513;-76
2020/12/10 08:47:25;;;;;;;159.52;44.03;;;0.70;99.90;;;;;;4981909;28;20151;-71
2020/12/10 08:50:27;;;;;;;147.38;42.42;;;0.60;99.90;;;;;;4983509;28;20477;-71
2020/12/10 08:52:59;;;;;;;150.98;43.58;;;0.60;99.90;;;;;;4978194;28;20530;-71
2020/12/10 08:55:34;;;;;;;139.40;41.42;;;0.60;99.90;;;;;;4981876;28;20117;-71
2020/12/10 08:58:00;;;;;;;153.65;42.67;;;0.70;99.90;;;;;;4980300;28;20058;-70
2020/12/10 09:00:26;;;;;;;142.77;41.90;;;0.60;99.90;;;;;;4981738;28;20886;-71
2020/12/10 09:02:51;;;;;;;153.43;44.22;;;0.60;99.90;;;;;;4975067;28;20394;-71
2020/12/10 09:05:17;;;;;;;143.70;41.40;;;0.70;99.90;;;;;;4979788;28;20113;-70
2020/12/10 09:07:44;;;;;;;151.85;42.08;;;0.70;99.90;;;;;;4976931;28;20446;-71
2020/12/10 09:10:09;;;;;;;136.57;40.80;;;0.80;99.90;;;;;;4982203;28;20034;-70
2020/12/10 09:12:35;;;;;;;141.63;41.17;;;0.90;99.90;;;;;;4975284;28;20027;-70
2020/12/10 09:15:01;;;;;;;137.65;41.85;;;0.90;99.90;;;;;;4981301;28;20498;-69
2020/12/10 09:17:27;;;;;;;137.45;41.95;;;0.80;99.90;;;;;;4975156;28;20523;-69
2020/12/10 09:19:53;;;;;;;141.35;41.53;;;0.80;99.90;;;;;;4977773;28;20694;-70
2020/12/10 09:22:19;;;;;;;142.82;41.08;;;0.90;99.90;;;;;;4982316;28;20035;-70
2020/12/10 09:24:45;;;;;;;128.77;40.55;;;0.90;99.90;;;;;;4973668;28;20030;-69
2020/12/10 09:27:10;;;;;;;133.45;38.13;;;0.90;99.90;;;;;;4980532;28;20184;-70
2020/12/10 09:29:39;;;;;;;113.80;36.70;;;1.00;99.90;;;;;;4973502;28;20479;-70
2020/12/10 09:32:05;;;;;;;126.43;37.53;;;1.00;99.90;;;;;;4978318;28;20037;-69
2020/12/10 09:34:30;;;;;;;131.73;39.33;;;0.90;99.90;;;;;;4975426;28;20027;-69
2020/12/10 09:36:59;;;;;;;126.15;41.20;;;0.80;99.90;;;;;;4982224;28;20042;-70
2020/12/10 09:39:25;;;;;;;123.38;40.17;;;0.90;99.90;;;;;;4978740;28;20066;-70
2020/12/10 09:41:51;;;;;;;128.80;38.92;;;1.00;99.90;;;;;;4974402;28;20065;-69
2020/12/10 09:44:17;;;;;;;134.60;39.25;;;1.00;99.90;;;;;;4981164;28;20088;-70
2020/12/10 09:46:42;;;;;;;130.43;39.28;;;0.90;99.90;;;;;;4982089;28;20037;-70
2020/12/10 09:49:08;;;;;;;123.53;36.63;;;1.00;99.90;;;;;;4981648;28;20041;-71
2020/12/10 09:51:47;;;;;;;206.52;67.05;;;0.90;99.90;;;;;;4981493;28;20034;-73
2020/12/10 09:54:22;;;;;;;139.07;42.17;;;1.00;99.90;;;;;;4978799;28;20073;-70
2020/12/10 09:57:07;;;;;;;131.80;39.92;;;1.00;99.90;;;;;;4977885;28;20042;-71
2020/12/10 09:59:36;;;;;;;129.38;38.38;;;0.90;99.90;;;;;;4981360;28;20120;-69
2020/12/10 10:02:02;;;;;;;125.57;38.50;;;1.00;99.90;;;;;;4982158;28;20713;-70
2020/12/10 10:04:30;;;;;;;121.72;39.15;;;0.90;99.90;;;;;;4961185;28;20067;-70
2020/12/10 10:06:55;;;;;;;127.28;37.80;;;0.90;99.90;;;;;;4978153;28;20038;-70
2020/12/10 10:09:22;;;;;;;131.30;38.05;;;0.80;99.90;;;;;;4969843;28;20031;-69
2020/12/10 10:11:48;;;;;;;116.55;36.92;;;0.90;99.90;;;;;;4977222;28;20127;-69
2020/12/10 10:14:14;;;;;;;117.10;36.63;;;1.00;99.90;;;;;;4979271;28;20648;-69
2020/12/10 10:16:39;;;;;;;114.40;36.08;;;1.00;99.90;;;;;;4969654;28;20039;-70
2020/12/10 10:19:05;;;;;;;120.13;34.60;;;0.90;99.90;;;;;;4974010;28;20053;-70
2020/12/10 10:21:31;;;;;;;115.20;35.25;;;0.90;99.90;;;;;;4975222;28;20038;-70
2020/12/10 10:23:57;;;;;;;128.05;37.65;;;0.80;99.90;;;;;;4980792;28;20046;-73
2020/12/10 10:26:23;;;;;;;105.78;34.30;;;0.80;99.90;;;;;;4990037;28;20656;-71
2020/12/10 10:28:52;;;;;;;115.13;34.97;;;0.80;99.90;;;;;;4963876;28;20036;-70
2020/12/10 10:31:18;;;;;;;123.65;37.50;;;0.80;99.90;;;;;;4963305;28;20125;-70
2020/12/10 10:33:44;;;;;;;116.95;35.25;;;0.90;99.90;;;;;;4981310;28;20026;-70
2020/12/10 10:36:10;;;;;;;119.05;36.40;;;0.80;99.90;;;;;;4981527;28;20039;-70
2020/12/10 10:38:36;;;;;;;121.97;36.33;;;0.70;99.90;;;;;;4981018;28;20077;-70
2020/12/10 10:41:02;;;;;;;126.82;36.50;;;0.60;99.90;;;;;;4980759;28;20053;-70
2020/12/10 10:43:28;;;;;;;122.35;37.35;;;0.80;99.90;;;;;;4981359;28;20037;-70
2020/12/10 10:45:53;;;;;;;121.72;35.78;;;0.80;99.90;;;;;;4980512;28;20034;-70
2020/12/10 10:48:19;;;;;;;121.57;35.50;;;0.90;99.90;;;;;;4981335;28;20034;-70
2020/12/10 10:50:45;;;;;;;119.90;34.97;;;0.90;99.90;;;;;;4980547;28;20046;-70
2020/12/10 10:53:10;;;;;;;130.02;38.45;;;0.80;99.90;;;;;;4980988;28;20033;-70
2020/12/10 10:55:36;;;;;;;124.95;36.03;;;0.80;99.90;;;;;;4966484;28;20107;-70
2020/12/10 10:58:02;;;;;;;118.30;36.30;;;0.60;99.90;;;;;;4984337;28;20172;-73
2020/12/10 11:00:27;;;;;;;130.95;37.50;;;0.70;99.90;;;;;;4984259;28;20039;-71
2020/12/10 11:02:53;;;;;;;122.45;35.50;;;0.70;99.90;;;;;;4967159;28;20045;-71
2020/12/10 11:05:19;;;;;;;128.02;37.42;;;0.70;99.90;;;;;;4985653;28;20038;-71
2020/12/10 11:07:44;;;;;;;132.48;36.72;;;0.80;99.90;;;;;;4993213;28;20036;-71
2020/12/10 11:10:11;;;;;;;141.35;42.20;;;0.80;99.90;;;;;;4985570;28;20069;-70
2020/12/10 11:12:37;;;;;;;119.80;36.10;;;0.70;99.90;;;;;;4985844;28;20027;-70
2020/12/10 11:15:03;;;;;;;123.15;34.35;;;0.70;99.90;;;;;;4985563;28;20913;-71
2020/12/10 11:17:29;;;;;;;116.43;35.38;;;0.60;99.90;;;;;;4986737;28;20800;-70
2020/12/10 11:19:54;;;;;;;122.85;35.08;;;0.60;99.90;;;;;;4976528;28;20066;-70
2020/12/10 11:22:20;;;;;;;109.68;32.55;;;0.60;99.90;;;;;;4982590;28;20500;-70
2020/12/10 11:24:46;;;;;;;129.35;35.80;;;0.70;99.90;;;;;;4985562;28;20471;-71
2020/12/10 11:27:11;;;;;;;120.88;33.22;;;0.70;99.90;;;;;;4986149;28;20141;-70
2020/12/10 11:29:37;;;;;;;123.53;34.08;;;0.60;99.90;;;;;;4984871;28;20030;-72
2020/12/10 11:32:03;;;;;;;126.95;34.13;;;0.40;99.90;;;;;;4984322;28;20041;-71
2020/12/10 11:34:29;;;;;;;126.72;36.58;;;0.50;99.90;;;;;;4984567;28;20042;-68
2020/12/10 11:36:56;;;;;;;123.70;34.13;;;0.40;99.90;;;;;;4976397;28;20052;-70
2020/12/10 11:39:22;;;;;;;123.32;35.88;;;0.40;99.90;;;;;;4973821;28;20045;-70
2020/12/10 11:41:50;;;;;;;122.07;37.13;;;0.40;99.90;;;;;;4983144;28;20038;-71
2020/12/10 11:44:16;;;;;;;123.95;34.53;;;0.30;99.90;;;;;;4973906;28;20034;-69
2020/12/10 11:46:42;;;;;;;119.25;33.88;;;0.50;99.90;;;;;;4984233;28;20496;-69
2020/12/10 11:49:08;;;;;;;129.88;35.58;;;0.50;99.90;;;;;;4975944;28;20038;-69
2020/12/10 11:51:34;;;;;;;125.03;35.97;;;0.40;99.90;;;;;;4984299;28;20131;-70
2020/12/10 11:54:00;;;;;;;124.47;35.53;;;0.40;99.90;;;;;;4965997;28;20042;-69
2020/12/10 11:56:26;;;;;;;125.28;35.47;;;0.40;99.90;;;;;;4984847;28;20701;-70
2020/12/10 11:58:52;;;;;;;119.65;33.35;;;0.40;99.90;;;;;;4984344;28;20038;-69
2020/12/10 12:01:17;;;;;;;124.30;35.20;;;0.50;99.90;;;;;;4984555;28;20116;-69
2020/12/10 12:03:43;;;;;;;115.55;34.05;;;0.50;99.90;;;;;;4984456;28;20097;-69
2020/12/10 12:06:09;;;;;;;111.78;34.13;;;0.50;99.90;;;;;;4964328;28;20035;-69
2020/12/10 12:08:35;;;;;;;117.43;33.83;;;0.40;99.90;;;;;;4984556;28;20058;-71
2020/12/10 12:11:02;;;;;;;127.63;35.05;;;0.40;99.90;;;;;;4983098;28;20092;-69
2020/12/10 12:13:28;;;;;;;111.43;33.80;;;0.40;99.90;;;;;;4984345;28;20513;-69
2020/12/10 12:15:54;;;;;;;120.85;35.08;;;0.50;99.90;;;;;;4983722;28;20136;-69
2020/12/10 12:18:21;;;;;;;122.78;33.28;;;0.50;99.90;;;;;;4983431;28;20117;-70
2020/12/10 12:20:46;;;;;;;121.57;34.67;;;0.50;99.90;;;;;;4983597;28;20030;-69
2020/12/10 12:23:12;;;;;;;116.70;32.00;;;0.60;99.90;;;;;;4972668;28;20030;-70
2020/12/10 12:25:39;;;;;;;133.13;38.88;;;0.70;99.90;;;;;;4983097;28;20038;-68
2020/12/10 12:28:04;;;;;;;120.38;32.90;;;0.60;99.90;;;;;;4983145;28;20394;-68
2020/12/10 12:30:33;;;;;;;113.53;32.53;;;0.50;99.90;;;;;;4982991;28;20045;-68
2020/12/10 12:33:03;;;;;;;113.60;35.30;;;0.60;99.90;;;;;;4983232;28;20061;-69
2020/12/10 12:35:29;;;;;;;122.93;34.00;;;0.60;99.90;;;;;;4983031;28;20146;-69
2020/12/10 12:37:55;;;;;;;116.32;32.42;;;0.60;99.90;;;;;;4981918;28;20117;-69